Time;durP1;ratioP1;P1;durP2;ratioP2;P2;SDS_P1;SDS_P2;PMS_P1;PMS_P2;Temp;Humidity;BMP_temperature;BMP_pressure;BME280_temperature;BME280_humidity;BME280_pressure;Samples;Min_cycle;Max_cycle;Signal;HPM_P1;HPM_P2
2023/03/05 00:00:44;;;;;;;30.90;17.13;;;6.70;73.20;;;;;;4928559;29;20313;-82
2023/03/05 00:03:11;;;;;;;28.77;16.05;;;6.70;73.20;;;;;;4916438;29;20211;-81
2023/03/05 00:05:42;;;;;;;31.70;15.90;;;6.70;73.20;;;;;;4927502;29;20776;-81
2023/03/05 00:08:09;;;;;;;33.47;17.40;;;6.70;73.30;;;;;;4931771;29;20229;-82
2023/03/05 00:10:37;;;;;;;31.98;15.73;;;6.70;73.30;;;;;;4941648;29;20215;-81
2023/03/05 00:13:06;;;;;;;28.25;15.25;;;6.70;73.30;;;;;;4940223;29;20236;-81
2023/03/05 00:15:40;;;;;;;37.13;17.08;;;6.70;73.30;;;;;;4935785;29;20655;-81
2023/03/05 00:18:09;;;;;;;37.42;17.17;;;6.70;73.30;;;;;;4930338;29;20213;-81
2023/03/05 00:20:37;;;;;;;30.40;15.40;;;6.70;73.30;;;;;;4918447;29;20224;-82
2023/03/05 00:23:05;;;;;;;29.83;16.73;;;6.60;73.40;;;;;;4931092;29;20664;-81
2023/03/05 00:25:35;;;;;;;31.50;16.00;;;6.60;73.40;;;;;;4935219;29;20222;-81
2023/03/05 00:28:03;;;;;;;28.85;15.60;;;6.60;73.40;;;;;;4921095;29;20209;-83
2023/03/05 00:30:31;;;;;;;28.58;15.75;;;6.60;73.40;;;;;;4936865;29;20257;-83
2023/03/05 00:32:59;;;;;;;31.67;17.25;;;6.60;73.50;;;;;;4919631;29;20208;-80
2023/03/05 00:35:28;;;;;;;33.08;17.00;;;6.60;73.40;;;;;;4919786;29;20201;-80
2023/03/05 00:37:57;;;;;;;34.35;17.27;;;6.60;73.50;;;;;;4913906;29;20209;-82
2023/03/05 00:40:25;;;;;;;27.17;15.20;;;6.60;73.50;;;;;;4936365;29;20689;-81
2023/03/05 00:42:53;;;;;;;38.35;19.27;;;6.60;73.50;;;;;;4936915;29;20232;-83
2023/03/05 00:45:20;;;;;;;28.88;14.43;;;6.60;73.50;;;;;;4934407;29;20206;-81
2023/03/05 00:47:48;;;;;;;29.17;15.82;;;6.60;73.70;;;;;;4930290;29;20777;-81
2023/03/05 00:50:17;;;;;;;29.05;16.38;;;6.60;73.70;;;;;;4931129;29;20257;-83
2023/03/05 00:52:46;;;;;;;32.63;16.38;;;6.50;73.70;;;;;;4937446;29;20728;-80
2023/03/05 00:55:14;;;;;;;27.65;15.60;;;6.50;73.80;;;;;;4939326;29;20193;-81
2023/03/05 00:57:43;;;;;;;31.10;17.25;;;6.50;73.80;;;;;;4924571;29;20216;-82
2023/03/05 01:00:14;;;;;;;32.63;17.00;;;6.50;73.80;;;;;;4931491;29;20250;-80
2023/03/05 01:02:42;;;;;;;30.55;17.20;;;6.50;73.90;;;;;;4933236;29;20241;-81
2023/03/05 01:05:11;;;;;;;28.85;17.40;;;6.50;73.90;;;;;;4934757;29;20674;-81
2023/03/05 01:07:40;;;;;;;32.30;16.70;;;6.50;73.90;;;;;;4935876;29;20222;-81
2023/03/05 01:10:11;;;;;;;33.13;17.77;;;6.50;74.00;;;;;;4922169;29;20210;-82
2023/03/05 01:12:40;;;;;;;32.28;16.70;;;6.50;74.10;;;;;;4913652;29;20306;-82
2023/03/05 01:15:10;;;;;;;31.63;16.10;;;6.50;74.10;;;;;;4922541;29;20203;-82
2023/03/05 01:17:38;;;;;;;28.92;17.60;;;6.50;74.10;;;;;;4931305;29;20202;-81
2023/03/05 01:20:07;;;;;;;33.63;16.35;;;6.50;74.10;;;;;;4928144;29;20770;-81
2023/03/05 01:22:35;;;;;;;36.72;17.88;;;6.50;74.20;;;;;;4937294;29;20208;-81
2023/03/05 01:25:03;;;;;;;42.10;17.58;;;6.50;74.20;;;;;;4926460;29;20401;-81
2023/03/05 01:27:33;;;;;;;34.45;18.20;;;6.50;74.20;;;;;;4943272;29;20678;-81
2023/03/05 01:30:01;;;;;;;54.17;26.55;;;6.50;74.20;;;;;;4923226;29;20218;-83
2023/03/05 01:32:29;;;;;;;43.50;21.40;;;6.50;74.30;;;;;;4939309;29;20238;-83
2023/03/05 01:34:57;;;;;;;46.47;24.02;;;6.40;74.50;;;;;;4930802;29;20277;-81
2023/03/05 01:37:25;;;;;;;54.22;24.30;;;6.30;74.30;;;;;;4925965;29;20208;-82
2023/03/05 01:39:53;;;;;;;35.40;17.13;;;6.30;74.50;;;;;;4928447;29;20206;-81
2023/03/05 01:42:21;;;;;;;39.00;16.65;;;6.20;74.50;;;;;;4933700;29;20574;-82
2023/03/05 01:45:09;;;;;;;23.33;12.75;;;6.20;74.50;;;;;;4928281;29;20219;-83
2023/03/05 01:47:38;;;;;;;26.60;12.05;;;6.20;74.50;;;;;;4921836;29;20211;-81
2023/03/05 01:50:11;;;;;;;23.77;11.57;;;6.20;74.60;;;;;;4921747;29;20218;-80
2023/03/05 01:52:41;;;;;;;21.00;11.57;;;6.20;74.80;;;;;;4931185;29;20202;-81
2023/03/05 01:55:13;;;;;;;22.58;11.38;;;6.30;74.70;;;;;;4935553;29;20200;-83
2023/03/05 01:57:44;;;;;;;18.38;9.93;;;6.30;74.70;;;;;;4936961;29;20206;-82
2023/03/05 02:00:18;;;;;;;20.92;9.77;;;6.40;74.70;;;;;;4928555;29;20213;-83
2023/03/05 02:02:49;;;;;;;18.80;10.27;;;6.40;74.70;;;;;;4940186;29;20224;-81
2023/03/05 02:05:19;;;;;;;23.05;10.25;;;6.40;74.60;;;;;;4935707;29;20216;-81
2023/03/05 02:07:48;;;;;;;19.17;10.80;;;6.50;74.60;;;;;;4936165;29;20218;-83
2023/03/05 02:10:18;;;;;;;20.15;11.02;;;6.50;74.60;;;;;;4925721;29;20200;-81
2023/03/05 02:12:48;;;;;;;20.15;10.73;;;6.50;74.50;;;;;;4937427;29;20214;-82
2023/03/05 02:15:18;;;;;;;21.10;10.57;;;6.50;74.50;;;;;;4929259;29;20220;-81
2023/03/05 02:17:46;;;;;;;21.65;11.70;;;6.50;74.50;;;;;;4922462;29;20220;-81
2023/03/05 02:20:16;;;;;;;21.90;11.57;;;6.50;74.50;;;;;;4918271;29;20569;-81
2023/03/05 02:22:46;;;;;;;20.83;10.90;;;6.50;74.50;;;;;;4926798;29;20705;-81
2023/03/05 02:25:16;;;;;;;20.20;12.30;;;6.50;74.50;;;;;;4930680;29;20221;-83
2023/03/05 02:27:51;;;;;;;22.58;12.32;;;6.50;74.50;;;;;;4934191;29;20218;-80
2023/03/05 02:30:19;;;;;;;21.20;11.43;;;6.50;74.50;;;;;;4930533;29;20571;-83
2023/03/05 02:32:48;;;;;;;23.25;11.38;;;6.50;74.50;;;;;;4919838;29;20202;-83
2023/03/05 02:35:16;;;;;;;21.33;11.70;;;6.40;74.50;;;;;;4922441;29;20214;-82
2023/03/05 02:37:46;;;;;;;22.85;12.27;;;6.40;74.50;;;;;;4914615;29;20296;-82
2023/03/05 02:40:15;;;;;;;20.30;11.65;;;6.40;74.50;;;;;;4927333;29;20557;-80
2023/03/05 02:42:43;;;;;;;21.45;11.32;;;6.40;74.60;;;;;;4915052;29;20224;-82
2023/03/05 02:45:13;;;;;;;22.65;12.60;;;6.40;74.60;;;;;;4929204;29;20220;-81
2023/03/05 02:47:41;;;;;;;24.63;14.18;;;6.40;74.60;;;;;;4913414;29;20309;-80
2023/03/05 02:50:12;;;;;;;23.27;12.95;;;6.40;74.60;;;;;;4915048;29;20217;-81
2023/03/05 02:52:40;;;;;;;22.20;12.60;;;6.40;74.60;;;;;;4937247;29;20237;-83
2023/03/05 02:55:14;;;;;;;27.27;12.90;;;6.40;74.60;;;;;;4916560;29;20210;-81
2023/03/05 02:57:43;;;;;;;30.92;13.90;;;6.30;74.70;;;;;;4917771;29;20250;-82
2023/03/05 03:00:12;;;;;;;26.00;14.02;;;6.30;74.70;;;;;;4924287;29;20660;-82
2023/03/05 03:03:01;;;;;;;27.80;12.20;;;6.30;74.70;;;;;;4935494;29;20291;-83
2023/03/05 03:05:29;;;;;;;24.88;13.40;;;6.30;74.70;;;;;;4903451;29;20203;-81
2023/03/05 03:07:57;;;;;;;23.13;13.27;;;6.30;74.80;;;;;;4936118;29;20241;-82
2023/03/05 03:10:26;;;;;;;24.52;14.02;;;6.30;74.80;;;;;;4937181;29;20258;-81
2023/03/05 03:12:54;;;;;;;25.65;13.50;;;6.30;74.80;;;;;;4940704;29;20275;-82
2023/03/05 03:15:23;;;;;;;30.67;15.05;;;6.20;74.90;;;;;;4936296;29;20219;-80
2023/03/05 03:17:51;;;;;;;26.90;13.82;;;6.20;74.90;;;;;;4929167;29;20202;-81
2023/03/05 03:20:19;;;;;;;29.05;14.80;;;6.20;74.90;;;;;;4937456;29;20217;-81
2023/03/05 03:22:47;;;;;;;27.73;15.10;;;6.20;75.00;;;;;;4928398;29;20361;-83
2023/03/05 03:25:17;;;;;;;27.20;15.10;;;6.20;75.00;;;;;;4938575;29;20251;-81
2023/03/05 03:27:47;;;;;;;28.17;16.58;;;6.20;75.00;;;;;;4922980;29;20221;-82
2023/03/05 03:30:33;;;;;;;30.08;16.15;;;6.20;75.00;;;;;;4935763;29;20206;-82
2023/03/05 03:33:00;;;;;;;26.27;16.00;;;6.20;75.10;;;;;;4917750;29;20274;-82
2023/03/05 03:35:28;;;;;;;24.25;14.50;;;6.20;75.10;;;;;;4927429;29;20199;-82
2023/03/05 03:37:56;;;;;;;30.05;16.45;;;6.20;75.10;;;;;;4933229;29;20202;-83
2023/03/05 03:40:26;;;;;;;33.35;16.65;;;6.20;75.20;;;;;;4926965;29;20212;-82
2023/03/05 03:42:55;;;;;;;30.33;16.27;;;6.20;75.20;;;;;;4917377;29;20219;-82
2023/03/05 03:45:23;;;;;;;35.00;18.95;;;6.20;75.20;;;;;;4927875;29;20216;-83
2023/03/05 03:47:52;;;;;;;36.25;20.98;;;6.20;75.30;;;;;;4935714;29;20300;-82
2023/03/05 03:50:23;;;;;;;37.05;19.98;;;6.20;75.30;;;;;;4920235;29;20206;-82
2023/03/05 03:52:51;;;;;;;33.88;19.02;;;6.20;75.30;;;;;;4918960;29;20201;-81
2023/03/05 03:55:20;;;;;;;34.60;18.52;;;6.20;75.40;;;;;;4916154;29;20811;-82
2023/03/05 03:57:48;;;;;;;33.17;17.65;;;6.20;75.40;;;;;;4940689;29;20212;-81
2023/03/05 04:00:19;;;;;;;38.72;19.90;;;6.20;75.40;;;;;;4935462;29;20249;-80
2023/03/05 04:02:46;;;;;;;35.30;18.20;;;6.20;75.40;;;;;;4926543;29;20907;-81
2023/03/05 04:05:15;;;;;;;34.30;20.27;;;6.20;75.40;;;;;;4930798;29;20261;-82
2023/03/05 04:07:44;;;;;;;38.38;20.42;;;6.20;75.40;;;;;;4934809;29;20245;-81
2023/03/05 04:10:12;;;;;;;36.38;20.48;;;6.20;75.40;;;;;;4939600;29;20201;-82
2023/03/05 04:12:41;;;;;;;36.22;21.23;;;6.20;75.50;;;;;;4929471;29;20217;-82
2023/03/05 04:15:10;;;;;;;40.33;21.33;;;6.20;75.50;;;;;;4937717;29;20207;-82
2023/03/05 04:17:40;;;;;;;35.92;19.83;;;6.20;75.60;;;;;;4935622;29;20261;-81
2023/03/05 04:20:10;;;;;;;37.65;21.55;;;6.20;75.60;;;;;;4925757;29;20284;-83
2023/03/05 04:22:38;;;;;;;46.08;22.05;;;6.20;75.60;;;;;;4940823;29;20232;-82
2023/03/05 04:25:07;;;;;;;38.83;20.48;;;6.10;75.70;;;;;;4933579;28;20209;-82
2023/03/05 04:27:36;;;;;;;36.42;21.40;;;6.20;75.60;;;;;;4930708;29;20223;-81
2023/03/05 04:30:11;;;;;;;35.40;19.40;;;6.20;75.80;;;;;;4935888;29;20213;-80
2023/03/05 04:32:40;;;;;;;36.03;21.50;;;6.20;75.80;;;;;;4930921;29;20231;-83
2023/03/05 04:35:09;;;;;;;38.47;21.60;;;6.20;75.90;;;;;;4925993;29;20221;-82
2023/03/05 04:37:38;;;;;;;41.35;20.77;;;6.20;75.90;;;;;;4933991;29;20606;-81
2023/03/05 04:40:08;;;;;;;33.15;20.65;;;6.20;75.90;;;;;;4913270;29;20268;-81
2023/03/05 04:42:35;;;;;;;35.65;20.60;;;6.20;75.90;;;;;;4937335;29;20242;-81
2023/03/05 04:45:05;;;;;;;35.08;19.42;;;6.20;75.90;;;;;;4920967;29;20785;-81
2023/03/05 04:47:33;;;;;;;40.72;19.77;;;6.20;75.90;;;;;;4916537;29;20213;-81
2023/03/05 04:50:04;;;;;;;32.60;19.70;;;6.20;75.90;;;;;;4934794;29;20319;-82
2023/03/05 04:52:32;;;;;;;36.38;20.35;;;6.20;75.90;;;;;;4926520;29;20279;-82
2023/03/05 04:55:00;;;;;;;35.92;19.50;;;6.20;75.90;;;;;;4942975;29;20200;-81
2023/03/05 04:57:28;;;;;;;28.70;17.98;;;6.20;75.90;;;;;;4937847;29;20225;-81
2023/03/05 04:59:56;;;;;;;34.85;18.30;;;6.20;75.90;;;;;;4933038;29;20207;-81
2023/03/05 05:02:24;;;;;;;31.95;18.48;;;6.10;75.90;;;;;;4932412;29;20730;-83
2023/03/05 05:04:53;;;;;;;29.17;17.65;;;6.20;75.90;;;;;;4933116;29;20217;-81
2023/03/05 05:07:22;;;;;;;30.15;17.45;;;6.10;75.90;;;;;;4936112;29;20201;-81
2023/03/05 05:10:00;;;;;;;29.50;17.50;;;6.10;75.90;;;;;;4942604;29;20232;-81
2023/03/05 05:12:29;;;;;;;32.03;17.20;;;6.10;75.90;;;;;;4912881;29;20209;-82
2023/03/05 05:14:57;;;;;;;24.50;15.52;;;6.10;75.90;;;;;;4936458;29;20206;-82
2023/03/05 05:17:26;;;;;;;29.30;16.92;;;6.10;75.90;;;;;;4938531;29;20220;-83
2023/03/05 05:19:54;;;;;;;30.65;16.55;;;6.10;75.90;;;;;;4927181;29;20201;-82
2023/03/05 05:22:24;;;;;;;27.83;17.48;;;6.10;75.90;;;;;;4926227;29;20216;-82
2023/03/05 05:24:57;;;;;;;28.02;14.80;;;6.10;75.90;;;;;;4929392;29;20217;-82
2023/03/05 05:27:25;;;;;;;26.77;15.15;;;6.10;75.90;;;;;;4937070;29;20210;-82
2023/03/05 05:29:53;;;;;;;24.77;15.23;;;6.10;75.90;;;;;;4913785;29;20234;-81
2023/03/05 05:32:23;;;;;;;28.67;15.15;;;6.10;75.90;;;;;;4936904;29;20237;-80
2023/03/05 05:34:54;;;;;;;25.20;13.65;;;6.10;76.00;;;;;;4935189;29;20198;-82
2023/03/05 05:37:30;;;;;;;29.95;15.15;;;6.10;76.00;;;;;;4930368;29;20201;-83
2023/03/05 05:39:58;;;;;;;25.05;15.02;;;6.10;76.00;;;;;;4919449;29;20253;-81
2023/03/05 05:42:28;;;;;;;24.17;14.13;;;6.10;75.90;;;;;;4931125;29;20251;-81
2023/03/05 05:44:56;;;;;;;25.63;12.93;;;6.10;75.90;;;;;;4925985;29;20195;-81
2023/03/05 05:47:24;;;;;;;29.00;14.40;;;6.10;75.90;;;;;;4936383;29;20201;-81
2023/03/05 05:49:52;;;;;;;22.50;13.35;;;6.10;75.90;;;;;;4933010;29;20274;-81
2023/03/05 05:52:19;;;;;;;24.42;13.70;;;6.10;75.90;;;;;;4928996;29;20211;-82
2023/03/05 05:54:49;;;;;;;25.17;13.95;;;6.00;75.90;;;;;;4909972;29;20213;-81
2023/03/05 05:57:17;;;;;;;21.33;11.77;;;6.00;75.80;;;;;;4916310;29;20239;-81
2023/03/05 05:59:45;;;;;;;19.30;12.73;;;6.00;75.90;;;;;;4925261;29;20237;-82
2023/03/05 06:02:13;;;;;;;25.42;12.93;;;6.00;75.80;;;;;;4935018;29;20286;-81
2023/03/05 06:04:47;;;;;;;21.52;12.65;;;6.00;75.90;;;;;;4923688;29;20211;-83
2023/03/05 06:07:15;;;;;;;22.48;12.45;;;6.00;75.80;;;;;;4932345;29;20208;-83
2023/03/05 06:09:43;;;;;;;24.40;12.85;;;6.00;75.80;;;;;;4936395;29;20862;-81
2023/03/05 06:12:12;;;;;;;28.75;13.60;;;6.00;75.80;;;;;;4937867;29;20200;-81
2023/03/05 06:14:40;;;;;;;20.75;12.30;;;6.00;75.80;;;;;;4924072;29;20210;-81
2023/03/05 06:17:08;;;;;;;23.35;13.35;;;6.00;75.80;;;;;;4933519;29;20645;-82
2023/03/05 06:19:39;;;;;;;21.90;12.50;;;6.00;75.80;;;;;;4918800;29;20308;-82
2023/03/05 06:22:07;;;;;;;22.80;11.85;;;6.00;75.80;;;;;;4924111;29;20216;-82
2023/03/05 06:24:37;;;;;;;22.05;11.82;;;6.00;75.80;;;;;;4932751;29;20202;-81
2023/03/05 06:27:06;;;;;;;22.65;12.95;;;6.00;75.80;;;;;;4920676;29;20228;-82
2023/03/05 06:29:35;;;;;;;24.02;13.00;;;6.00;75.80;;;;;;4924197;29;20220;-83
2023/03/05 06:32:04;;;;;;;21.80;12.90;;;6.00;75.80;;;;;;4937119;29;20225;-81
2023/03/05 06:34:32;;;;;;;23.73;12.50;;;6.00;75.80;;;;;;4941799;29;20204;-82
2023/03/05 06:37:00;;;;;;;18.45;11.40;;;6.00;75.70;;;;;;4929144;29;20564;-83
2023/03/05 06:39:29;;;;;;;20.70;12.05;;;5.90;75.60;;;;;;4930306;29;20202;-81
2023/03/05 06:41:57;;;;;;;17.15;9.75;;;5.90;75.70;;;;;;4934437;29;20875;-82
2023/03/05 06:44:25;;;;;;;16.55;9.30;;;5.90;75.60;;;;;;4930008;29;20296;-80
2023/03/05 06:46:54;;;;;;;14.13;7.57;;;5.80;75.50;;;;;;4928414;29;20207;-82
2023/03/05 06:49:22;;;;;;;14.50;7.47;;;5.70;75.20;;;;;;4934611;29;20247;-81
2023/03/05 06:51:50;;;;;;;16.17;7.90;;;5.70;75.30;;;;;;4924289;29;20203;-82
2023/03/05 06:54:19;;;;;;;17.63;8.10;;;5.60;75.40;;;;;;4931489;29;20228;-81
2023/03/05 06:56:47;;;;;;;18.52;7.55;;;5.60;75.50;;;;;;4930573;29;20211;-82
2023/03/05 06:59:16;;;;;;;19.10;7.85;;;5.60;75.50;;;;;;4920307;29;20205;-82
2023/03/05 07:01:45;;;;;;;13.85;6.70;;;5.60;75.30;;;;;;4917209;29;20233;-81
2023/03/05 07:04:14;;;;;;;12.23;6.32;;;5.60;75.40;;;;;;4918016;29;20205;-80
2023/03/05 07:06:43;;;;;;;9.60;5.40;;;5.60;75.50;;;;;;4928059;29;20634;-82
2023/03/05 07:09:14;;;;;;;10.82;5.57;;;5.60;75.50;;;;;;4939144;29;20229;-81
2023/03/05 07:11:44;;;;;;;9.60;5.78;;;5.70;75.40;;;;;;4936231;29;20229;-83
2023/03/05 07:14:12;;;;;;;13.55;4.95;;;5.70;75.30;;;;;;4942161;29;20211;-83
2023/03/05 07:16:40;;;;;;;10.52;6.20;;;5.70;75.20;;;;;;4918100;29;20209;-82
2023/03/05 07:19:09;;;;;;;17.20;5.55;;;5.80;75.20;;;;;;4939068;29;20207;-82
2023/03/05 07:21:39;;;;;;;11.25;5.00;;;5.80;75.10;;;;;;4928983;29;20224;-82
2023/03/05 07:24:07;;;;;;;8.07;4.30;;;5.80;75.10;;;;;;4927805;29;20197;-82
2023/03/05 07:26:36;;;;;;;9.15;3.95;;;5.80;75.00;;;;;;4937111;29;20740;-81
2023/03/05 07:29:04;;;;;;;8.15;3.50;;;5.80;74.90;;;;;;4935084;29;20233;-81
2023/03/05 07:31:37;;;;;;;7.85;4.05;;;5.80;74.80;;;;;;4926312;29;20246;-81
2023/03/05 07:34:11;;;;;;;8.90;3.95;;;5.80;74.80;;;;;;4930132;29;20919;-82
2023/03/05 07:36:42;;;;;;;10.93;4.18;;;5.80;74.70;;;;;;4937945;29;20201;-83
2023/03/05 07:39:12;;;;;;;8.75;4.05;;;5.80;74.70;;;;;;4918242;29;20210;-81
2023/03/05 07:41:40;;;;;;;7.82;3.65;;;5.80;74.60;;;;;;4932564;29;20223;-81
2023/03/05 07:44:10;;;;;;;7.55;3.10;;;5.90;74.60;;;;;;4922623;29;20210;-81
2023/03/05 07:46:38;;;;;;;14.85;4.63;;;5.90;74.50;;;;;;4935720;29;20693;-81
2023/03/05 07:49:06;;;;;;;11.55;3.85;;;5.90;74.40;;;;;;4940940;29;20196;-81
2023/03/05 07:51:34;;;;;;;9.05;5.28;;;5.90;74.20;;;;;;4918265;29;20601;-83
2023/03/05 07:54:04;;;;;;;9.32;3.85;;;6.00;74.20;;;;;;4929018;29;20218;-82
2023/03/05 07:56:34;;;;;;;10.18;3.70;;;6.00;74.10;;;;;;4934208;29;20205;-81
2023/03/05 07:59:05;;;;;;;10.85;3.70;;;6.00;74.10;;;;;;4929649;29;20285;-83
2023/03/05 08:01:33;;;;;;;7.25;3.35;;;6.00;74.00;;;;;;4931411;29;20234;-82
2023/03/05 08:04:02;;;;;;;7.97;3.40;;;6.00;74.00;;;;;;4925750;29;20226;-86
2023/03/05 08:06:30;;;;;;;12.70;3.67;;;6.00;73.90;;;;;;4936761;29;20214;-79
2023/03/05 08:08:59;;;;;;;9.75;3.63;;;6.00;73.90;;;;;;4940812;28;20197;-80
2023/03/05 08:11:28;;;;;;;8.45;3.05;;;6.00;73.80;;;;;;4924879;29;20882;-80
2023/03/05 08:13:58;;;;;;;11.85;3.15;;;6.10;73.70;;;;;;4929047;29;20211;-82
2023/03/05 08:16:26;;;;;;;9.98;3.25;;;6.10;73.60;;;;;;4926627;29;20867;-81
2023/03/05 08:18:56;;;;;;;7.65;2.58;;;6.10;73.50;;;;;;4934917;29;20206;-80
2023/03/05 08:21:28;;;;;;;8.20;2.70;;;6.00;73.40;;;;;;4931979;29;20226;-81
2023/03/05 08:23:56;;;;;;;7.75;2.47;;;6.00;73.40;;;;;;4937787;29;20207;-82
2023/03/05 08:26:26;;;;;;;7.82;2.80;;;6.00;73.30;;;;;;4938364;29;20204;-80
2023/03/05 08:28:55;;;;;;;12.77;2.67;;;6.00;73.20;;;;;;4926566;29;20220;-80
2023/03/05 08:31:26;;;;;;;5.93;2.33;;;6.00;73.10;;;;;;4937116;29;20228;-80
2023/03/05 08:33:55;;;;;;;7.70;2.85;;;6.00;73.00;;;;;;4927178;29;20197;-81
2023/03/05 08:36:23;;;;;;;8.60;2.38;;;6.00;72.90;;;;;;4939823;29;20216;-81
2023/03/05 08:38:53;;;;;;;6.50;2.70;;;6.00;72.90;;;;;;4936374;29;20843;-81
2023/03/05 08:41:21;;;;;;;7.32;2.05;;;6.00;72.80;;;;;;4931552;29;20321;-83
2023/03/05 08:43:49;;;;;;;6.18;2.78;;;6.00;72.80;;;;;;4931211;29;20212;-83
2023/03/05 08:46:19;;;;;;;6.93;2.50;;;6.00;72.70;;;;;;4919183;29;20608;-80
2023/03/05 08:48:47;;;;;;;7.15;2.90;;;6.00;72.60;;;;;;4932279;29;20735;-79
2023/03/05 08:51:17;;;;;;;5.82;2.40;;;6.00;72.50;;;;;;4934500;29;20217;-79
2023/03/05 08:53:46;;;;;;;10.75;2.60;;;6.00;72.40;;;;;;4920955;29;20301;-82
2023/03/05 08:56:15;;;;;;;10.63;2.55;;;6.00;72.40;;;;;;4935346;29;20234;-79
2023/03/05 08:58:44;;;;;;;8.07;2.50;;;6.00;72.40;;;;;;4935223;29;20237;-80
2023/03/05 09:01:15;;;;;;;6.40;2.75;;;6.00;72.40;;;;;;4926368;29;20635;-80
2023/03/05 09:03:45;;;;;;;4.80;2.50;;;6.00;72.30;;;;;;4930748;29;20234;-82
2023/03/05 09:06:20;;;;;;;8.70;2.70;;;6.00;72.30;;;;;;4928271;29;20227;-79
2023/03/05 09:08:48;;;;;;;9.70;2.75;;;6.00;72.20;;;;;;4931678;29;20549;-81
2023/03/05 09:11:16;;;;;;;7.63;2.78;;;6.00;72.10;;;;;;4921345;29;20288;-82
2023/03/05 09:13:44;;;;;;;6.20;3.40;;;6.00;72.10;;;;;;4923641;29;20212;-81
2023/03/05 09:16:13;;;;;;;6.75;2.70;;;6.00;72.10;;;;;;4937857;29;20914;-80
2023/03/05 09:18:42;;;;;;;6.65;2.55;;;6.00;72.10;;;;;;4917559;29;20281;-81
2023/03/05 09:21:13;;;;;;;9.63;3.20;;;6.10;72.10;;;;;;4921785;29;20222;-80
2023/03/05 09:23:41;;;;;;;7.05;2.60;;;6.10;72.10;;;;;;4932718;29;20201;-81
2023/03/05 09:26:12;;;;;;;6.75;2.80;;;6.10;72.00;;;;;;4938556;29;20205;-82
2023/03/05 09:28:41;;;;;;;7.90;3.17;;;6.20;71.90;;;;;;4933366;29;20200;-80
2023/03/05 09:31:10;;;;;;;9.27;3.33;;;6.20;71.80;;;;;;4920327;29;20233;-81
2023/03/05 09:33:39;;;;;;;6.25;2.83;;;6.20;71.80;;;;;;4935054;29;20296;-81
2023/03/05 09:36:19;;;;;;;6.03;2.65;;;6.20;71.70;;;;;;4913832;29;20193;-80
2023/03/05 09:38:47;;;;;;;8.13;3.33;;;6.20;71.60;;;;;;4934409;29;20206;-81
2023/03/05 09:41:23;;;;;;;7.15;3.30;;;6.20;71.50;;;;;;4929326;29;20216;-81
2023/03/05 09:43:58;;;;;;;7.22;3.08;;;6.20;71.50;;;;;;4934951;29;20216;-80
2023/03/05 09:46:40;;;;;;;6.93;3.10;;;6.20;71.50;;;;;;4933639;29;20215;-80
2023/03/05 09:49:16;;;;;;;8.75;3.22;;;6.20;71.50;;;;;;4927119;29;20213;-80
2023/03/05 09:51:48;;;;;;;8.18;3.65;;;6.20;71.50;;;;;;4929708;29;20229;-82
2023/03/05 09:54:20;;;;;;;10.38;3.42;;;6.20;71.40;;;;;;4935182;29;20207;-84
2023/03/05 09:56:55;;;;;;;7.60;3.33;;;6.20;71.40;;;;;;4933591;29;20197;-82
2023/03/05 09:59:34;;;;;;;9.82;3.55;;;6.30;71.40;;;;;;4935855;29;20227;-81
2023/03/05 10:02:12;;;;;;;8.13;3.47;;;6.30;71.40;;;;;;4923226;29;20234;-80
2023/03/05 10:04:45;;;;;;;12.32;4.70;;;6.40;71.30;;;;;;4930783;29;20300;-79
2023/03/05 10:07:18;;;;;;;9.57;4.43;;;6.40;71.30;;;;;;4932698;29;20567;-80
2023/03/05 10:09:51;;;;;;;9.07;4.30;;;6.50;71.40;;;;;;4922851;29;20332;-81
2023/03/05 10:12:26;;;;;;;9.15;4.70;;;6.60;71.40;;;;;;4937801;29;20889;-80
2023/03/05 10:14:56;;;;;;;8.02;3.75;;;6.70;71.30;;;;;;4916760;29;20312;-80
2023/03/05 10:17:54;;;;;;;12.90;5.45;;;6.90;71.10;;;;;;4934747;28;20314;-81
2023/03/05 10:20:53;;;;;;;8.90;4.40;;;6.90;71.00;;;;;;4931524;29;20213;-78
2023/03/05 10:23:30;;;;;;;10.13;5.30;;;7.00;70.90;;;;;;4931416;29;20717;-82
2023/03/05 10:26:15;;;;;;;10.43;4.50;;;7.00;70.50;;;;;;4928656;29;20202;-81
2023/03/05 10:28:51;;;;;;;13.35;5.35;;;6.90;70.50;;;;;;4924543;29;20595;-80
2023/03/05 10:31:43;;;;;;;8.45;4.43;;;6.90;70.80;;;;;;4914517;29;20233;-81
2023/03/05 10:34:29;;;;;;;19.80;4.72;;;7.00;70.80;;;;;;4929564;29;20610;-81
2023/03/05 10:37:09;;;;;;;13.80;6.10;;;7.10;70.80;;;;;;4926305;29;20205;-82
2023/03/05 10:39:55;;;;;;;15.93;6.80;;;7.10;70.30;;;;;;4931620;29;20218;-81
2023/03/05 10:42:30;;;;;;;12.73;7.35;;;7.20;70.40;;;;;;4930356;29;20206;-83
2023/03/05 10:45:00;;;;;;;12.30;6.68;;;7.20;70.50;;;;;;4915489;29;20217;-81
2023/03/05 10:47:32;;;;;;;12.80;6.65;;;7.30;70.40;;;;;;4921059;29;20234;-84
2023/03/05 10:50:00;;;;;;;13.57;6.97;;;7.30;69.90;;;;;;4928280;29;20207;-83
2023/03/05 10:52:33;;;;;;;13.65;6.35;;;7.20;69.40;;;;;;4927931;29;20601;-81
2023/03/05 10:55:12;;;;;;;11.50;6.18;;;7.10;69.60;;;;;;4934699;29;20578;-81
2023/03/05 10:57:40;;;;;;;17.67;6.35;;;7.10;69.80;;;;;;4939098;29;20243;-83
2023/03/05 11:00:18;;;;;;;14.57;6.25;;;7.10;69.80;;;;;;4944609;29;20228;-84
2023/03/05 11:02:58;;;;;;;10.82;6.15;;;7.10;69.50;;;;;;4935252;28;20983;-84
2023/03/05 11:05:46;;;;;;;16.27;6.90;;;7.10;69.70;;;;;;4900576;29;20234;-83
2023/03/05 11:08:24;;;;;;;11.48;6.07;;;7.20;69.80;;;;;;4926739;29;20261;-82
2023/03/05 11:11:21;;;;;;;13.25;5.95;;;7.20;69.70;;;;;;4928550;29;20201;-84
2023/03/05 11:13:57;;;;;;;12.00;5.60;;;7.20;69.40;;;;;;4902191;29;20218;-85
2023/03/05 11:16:27;;;;;;;12.38;5.60;;;7.20;69.20;;;;;;4921197;29;20216;-82
2023/03/05 11:19:18;;;;;;;10.32;5.70;;;7.20;69.40;;;;;;4932135;29;20211;-84
2023/03/05 11:21:47;;;;;;;13.15;5.97;;;7.10;68.70;;;;;;4928983;29;20204;-84
2023/03/05 11:24:18;;;;;;;10.45;5.93;;;7.10;69.20;;;;;;4933814;29;20213;-85
2023/03/05 11:26:49;;;;;;;16.70;6.70;;;7.10;69.00;;;;;;4922183;29;20210;-83
2023/03/05 11:29:20;;;;;;;9.65;5.57;;;7.10;69.10;;;;;;4934156;29;20213;-84
2023/03/05 11:31:48;;;;;;;10.13;6.40;;;7.20;69.20;;;;;;4932140;29;20235;-80
2023/03/05 11:34:34;;;;;;;11.95;6.10;;;7.20;69.20;;;;;;4940836;29;20206;-80
2023/03/05 11:37:05;;;;;;;13.75;6.22;;;7.20;69.20;;;;;;4929351;29;20211;-81
2023/03/05 11:39:37;;;;;;;12.82;7.00;;;7.30;69.20;;;;;;4935088;29;20566;-80
2023/03/05 11:42:12;;;;;;;10.88;5.10;;;7.30;69.10;;;;;;4933109;29;20207;-79
2023/03/05 11:44:46;;;;;;;12.88;5.70;;;7.20;68.60;;;;;;4935625;29;20214;-81
2023/03/05 11:47:24;;;;;;;10.93;5.80;;;7.10;68.60;;;;;;4934090;29;20217;-81
2023/03/05 11:50:00;;;;;;;10.02;5.47;;;7.10;68.60;;;;;;4935534;29;20208;-81
2023/03/05 11:52:32;;;;;;;9.70;6.20;;;7.00;68.80;;;;;;4932253;29;20264;-80
2023/03/05 11:55:05;;;;;;;11.63;6.15;;;7.00;68.80;;;;;;4933123;29;20206;-80
2023/03/05 11:57:42;;;;;;;16.85;7.32;;;7.10;68.90;;;;;;4936341;29;20216;-82
2023/03/05 12:00:16;;;;;;;14.20;6.65;;;7.10;69.00;;;;;;4934073;29;20204;-83
2023/03/05 12:02:54;;;;;;;17.02;6.45;;;7.20;69.10;;;;;;4926730;29;20202;-82
2023/03/05 12:05:22;;;;;;;12.70;6.82;;;7.20;69.10;;;;;;4937640;29;20203;-85
2023/03/05 12:07:58;;;;;;;11.35;6.30;;;7.30;68.90;;;;;;4934782;29;20602;-86
2023/03/05 12:10:26;;;;;;;14.57;6.10;;;7.30;69.00;;;;;;4926268;29;20285;-81
2023/03/05 12:13:04;;;;;;;14.50;7.30;;;7.30;69.00;;;;;;4931144;29;20611;-81
2023/03/05 12:15:45;;;;;;;11.75;6.55;;;7.40;69.00;;;;;;4932780;29;20209;-80
2023/03/05 12:18:26;;;;;;;12.73;6.47;;;7.40;69.00;;;;;;4926984;29;20224;-83
2023/03/05 12:21:03;;;;;;;13.98;6.93;;;7.40;69.00;;;;;;4927328;29;20200;-80
2023/03/05 12:23:45;;;;;;;11.45;5.63;;;7.40;69.00;;;;;;4926656;29;20258;-80
2023/03/05 12:26:15;;;;;;;11.32;5.60;;;7.50;68.90;;;;;;4929895;29;20217;-82
2023/03/05 12:28:58;;;;;;;17.33;6.20;;;7.50;68.80;;;;;;4926299;29;20670;-82
2023/03/05 12:31:33;;;;;;;10.82;5.32;;;7.60;68.80;;;;;;4928315;29;20228;-80
2023/03/05 12:34:48;;;;;;;17.10;5.85;;;7.60;68.80;;;;;;4914019;29;20227;-78
2023/03/05 12:37:49;;;;;;;12.57;6.00;;;7.60;68.60;;;;;;4930942;29;20689;-80
2023/03/05 12:40:22;;;;;;;13.57;5.95;;;7.60;68.60;;;;;;4929381;29;20214;-79
2023/03/05 12:42:55;;;;;;;11.88;5.88;;;7.60;68.70;;;;;;4941430;29;20220;-80
2023/03/05 12:45:38;;;;;;;12.32;5.70;;;7.70;68.60;;;;;;4927935;28;20204;-82
2023/03/05 12:48:41;;;;;;;10.43;5.30;;;7.70;68.00;;;;;;4932378;29;20207;-83
2023/03/05 12:51:31;;;;;;;10.15;5.38;;;7.70;68.20;;;;;;4936511;29;20233;-81
2023/03/05 12:54:34;;;;;;;10.35;5.13;;;7.60;68.10;;;;;;4930196;29;20214;-82
2023/03/05 12:57:05;;;;;;;13.85;6.70;;;7.60;68.20;;;;;;4918141;29;20206;-81
2023/03/05 12:59:42;;;;;;;12.52;6.03;;;7.60;68.20;;;;;;4933962;29;20211;-81
2023/03/05 13:02:21;;;;;;;11.20;6.03;;;7.70;68.10;;;;;;4931884;29;20241;-83
2023/03/05 13:04:51;;;;;;;10.55;5.70;;;7.60;67.30;;;;;;4934861;29;20222;-80